sensor_id;sensor_type;location;lat;lon;timestamp;P1;durP1;ratioP1;P2;durP2;ratioP2
59974;SDS011;62136;-35.664;-63.766;2023-05-07T00:01:42;3.88;;;2.97;;
59974;SDS011;62136;-35.664;-63.766;2023-05-07T00:04:09;3.78;;;2.55;;
59974;SDS011;62136;-35.664;-63.766;2023-05-07T00:06:36;4.57;;;2.95;;
59974;SDS011;62136;-35.664;-63.766;2023-05-07T00:09:03;3.20;;;2.90;;
59974;SDS011;62136;-35.664;-63.766;2023-05-07T00:11:31;3.75;;;2.80;;
59974;SDS011;62136;-35.664;-63.766;2023-05-07T00:13:58;3.55;;;3.10;;
59974;SDS011;62136;-35.664;-63.766;2023-05-07T00:16:25;3.13;;;2.75;;
59974;SDS011;62136;-35.664;-63.766;2023-05-07T00:18:53;4.05;;;3.00;;
59974;SDS011;62136;-35.664;-63.766;2023-05-07T00:21:20;4.55;;;3.10;;
59974;SDS011;62136;-35.664;-63.766;2023-05-07T00:23:47;3.50;;;3.20;;
59974;SDS011;62136;-35.664;-63.766;2023-05-07T00:26:14;5.20;;;3.45;;
59974;SDS011;62136;-35.664;-63.766;2023-05-07T00:28:41;4.13;;;2.90;;
59974;SDS011;62136;-35.664;-63.766;2023-05-07T00:31:09;4.00;;;3.25;;
59974;SDS011;62136;-35.664;-63.766;2023-05-07T00:33:37;4.78;;;2.90;;
59974;SDS011;62136;-35.664;-63.766;2023-05-07T00:36:04;4.50;;;2.90;;
59974;SDS011;62136;-35.664;-63.766;2023-05-07T00:38:31;4.82;;;2.72;;
59974;SDS011;62136;-35.664;-63.766;2023-05-07T00:40:58;3.90;;;2.97;;
59974;SDS011;62136;-35.664;-63.766;2023-05-07T00:43:25;4.20;;;3.35;;
59974;SDS011;62136;-35.664;-63.766;2023-05-07T00:45:52;3.65;;;2.95;;
59974;SDS011;62136;-35.664;-63.766;2023-05-07T00:48:20;4.07;;;2.88;;
59974;SDS011;62136;-35.664;-63.766;2023-05-07T00:50:47;4.28;;;2.85;;
59974;SDS011;62136;-35.664;-63.766;2023-05-07T00:53:14;4.53;;;2.92;;
59974;SDS011;62136;-35.664;-63.766;2023-05-07T00:55:41;3.25;;;2.95;;
59974;SDS011;62136;-35.664;-63.766;2023-05-07T00:58:08;4.95;;;3.03;;
59974;SDS011;62136;-35.664;-63.766;2023-05-07T01:00:35;4.15;;;2.97;;
59974;SDS011;62136;-35.664;-63.766;2023-05-07T01:03:03;5.07;;;3.13;;
59974;SDS011;62136;-35.664;-63.766;2023-05-07T01:05:30;3.85;;;2.80;;
59974;SDS011;62136;-35.664;-63.766;2023-05-07T01:07:58;3.80;;;3.38;;
59974;SDS011;62136;-35.664;-63.766;2023-05-07T01:10:26;4.45;;;3.00;;
59974;SDS011;62136;-35.664;-63.766;2023-05-07T01:12:56;4.97;;;3.13;;
59974;SDS011;62136;-35.664;-63.766;2023-05-07T01:15:25;4.03;;;3.05;;
59974;SDS011;62136;-35.664;-63.766;2023-05-07T01:17:51;3.78;;;3.20;;
59974;SDS011;62136;-35.664;-63.766;2023-05-07T01:20:18;5.20;;;3.35;;
59974;SDS011;62136;-35.664;-63.766;2023-05-07T01:22:45;4.05;;;3.30;;
59974;SDS011;62136;-35.664;-63.766;2023-05-07T01:25:13;5.72;;;3.20;;
59974;SDS011;62136;-35.664;-63.766;2023-05-07T01:27:41;5.22;;;3.05;;
59974;SDS011;62136;-35.664;-63.766;2023-05-07T01:30:08;4.70;;;3.35;;
59974;SDS011;62136;-35.664;-63.766;2023-05-07T01:35:40;6.03;;;3.28;;
59974;SDS011;62136;-35.664;-63.766;2023-05-07T01:38:10;4.22;;;3.30;;
59974;SDS011;62136;-35.664;-63.766;2023-05-07T01:40:37;5.18;;;3.17;;
59974;SDS011;62136;-35.664;-63.766;2023-05-07T01:43:04;4.75;;;3.33;;
59974;SDS011;62136;-35.664;-63.766;2023-05-07T01:45:32;6.20;;;3.80;;
59974;SDS011;62136;-35.664;-63.766;2023-05-07T01:48:01;4.18;;;3.63;;
59974;SDS011;62136;-35.664;-63.766;2023-05-07T01:50:29;4.55;;;3.72;;
59974;SDS011;62136;-35.664;-63.766;2023-05-07T01:52:58;4.40;;;3.72;;
59974;SDS011;62136;-35.664;-63.766;2023-05-07T01:55:25;6.10;;;3.85;;
59974;SDS011;62136;-35.664;-63.766;2023-05-07T01:57:52;4.45;;;3.50;;
59974;SDS011;62136;-35.664;-63.766;2023-05-07T02:00:19;4.90;;;3.63;;
59974;SDS011;62136;-35.664;-63.766;2023-05-07T02:02:46;6.70;;;4.25;;
59974;SDS011;62136;-35.664;-63.766;2023-05-07T02:05:13;6.30;;;4.20;;
59974;SDS011;62136;-35.664;-63.766;2023-05-07T02:07:40;4.80;;;3.97;;
59974;SDS011;62136;-35.664;-63.766;2023-05-07T02:10:08;5.72;;;4.20;;
59974;SDS011;62136;-35.664;-63.766;2023-05-07T02:12:36;4.78;;;3.65;;
59974;SDS011;62136;-35.664;-63.766;2023-05-07T02:15:03;6.15;;;4.45;;
59974;SDS011;62136;-35.664;-63.766;2023-05-07T02:17:31;5.70;;;3.92;;
59974;SDS011;62136;-35.664;-63.766;2023-05-07T02:19:58;4.20;;;3.80;;
59974;SDS011;62136;-35.664;-63.766;2023-05-07T02:22:25;6.10;;;4.60;;
59974;SDS011;62136;-35.664;-63.766;2023-05-07T02:24:52;5.38;;;4.32;;
59974;SDS011;62136;-35.664;-63.766;2023-05-07T02:27:19;5.35;;;4.47;;
59974;SDS011;62136;-35.664;-63.766;2023-05-07T02:29:46;4.80;;;4.15;;
59974;SDS011;62136;-35.664;-63.766;2023-05-07T02:32:13;5.15;;;3.67;;
59974;SDS011;62136;-35.664;-63.766;2023-05-07T02:34:40;5.75;;;4.13;;
59974;SDS011;62136;-35.664;-63.766;2023-05-07T02:37:07;6.10;;;4.30;;
59974;SDS011;62136;-35.664;-63.766;2023-05-07T02:39:35;5.90;;;4.40;;
59974;SDS011;62136;-35.664;-63.766;2023-05-07T02:42:02;5.20;;;4.25;;
59974;SDS011;62136;-35.664;-63.766;2023-05-07T02:44:29;6.38;;;4.47;;
59974;SDS011;62136;-35.664;-63.766;2023-05-07T02:46:56;6.88;;;4.35;;
59974;SDS011;62136;-35.664;-63.766;2023-05-07T02:49:23;6.07;;;4.32;;
59974;SDS011;62136;-35.664;-63.766;2023-05-07T02:51:50;6.45;;;4.38;;
59974;SDS011;62136;-35.664;-63.766;2023-05-07T02:54:17;7.03;;;4.60;;
59974;SDS011;62136;-35.664;-63.766;2023-05-07T02:56:44;5.68;;;4.63;;
59974;SDS011;62136;-35.664;-63.766;2023-05-07T02:59:11;6.95;;;4.93;;
59974;SDS011;62136;-35.664;-63.766;2023-05-07T03:01:39;5.85;;;4.53;;
59974;SDS011;62136;-35.664;-63.766;2023-05-07T03:04:09;5.78;;;4.82;;
59974;SDS011;62136;-35.664;-63.766;2023-05-07T03:06:36;5.97;;;4.60;;
59974;SDS011;62136;-35.664;-63.766;2023-05-07T03:09:03;5.32;;;4.60;;
59974;SDS011;62136;-35.664;-63.766;2023-05-07T03:11:30;7.13;;;4.43;;
59974;SDS011;62136;-35.664;-63.766;2023-05-07T03:13:57;6.38;;;4.13;;
59974;SDS011;62136;-35.664;-63.766;2023-05-07T03:16:24;7.68;;;4.40;;
59974;SDS011;62136;-35.664;-63.766;2023-05-07T03:18:52;5.53;;;4.53;;
59974;SDS011;62136;-35.664;-63.766;2023-05-07T03:21:19;5.50;;;4.30;;
59974;SDS011;62136;-35.664;-63.766;2023-05-07T03:23:46;5.93;;;4.65;;
59974;SDS011;62136;-35.664;-63.766;2023-05-07T03:26:13;5.40;;;4.57;;
59974;SDS011;62136;-35.664;-63.766;2023-05-07T03:28:40;5.13;;;4.35;;
59974;SDS011;62136;-35.664;-63.766;2023-05-07T03:31:07;6.13;;;4.70;;
59974;SDS011;62136;-35.664;-63.766;2023-05-07T03:33:34;6.45;;;4.50;;
59974;SDS011;62136;-35.664;-63.766;2023-05-07T03:36:04;4.82;;;4.20;;
59974;SDS011;62136;-35.664;-63.766;2023-05-07T03:38:31;7.20;;;4.60;;
59974;SDS011;62136;-35.664;-63.766;2023-05-07T03:40:58;5.50;;;4.40;;
59974;SDS011;62136;-35.664;-63.766;2023-05-07T03:43:25;5.43;;;4.22;;
59974;SDS011;62136;-35.664;-63.766;2023-05-07T03:45:52;6.97;;;4.57;;
59974;SDS011;62136;-35.664;-63.766;2023-05-07T03:48:20;5.25;;;4.30;;
59974;SDS011;62136;-35.664;-63.766;2023-05-07T03:50:47;5.93;;;4.30;;
59974;SDS011;62136;-35.664;-63.766;2023-05-07T03:53:14;5.72;;;4.38;;
59974;SDS011;62136;-35.664;-63.766;2023-05-07T03:55:41;6.32;;;4.82;;
59974;SDS011;62136;-35.664;-63.766;2023-05-07T03:58:08;5.35;;;3.90;;
59974;SDS011;62136;-35.664;-63.766;2023-05-07T04:00:35;6.20;;;4.13;;
59974;SDS011;62136;-35.664;-63.766;2023-05-07T04:03:04;5.10;;;4.00;;
59974;SDS011;62136;-35.664;-63.766;2023-05-07T04:05:31;6.05;;;4.07;;
59974;SDS011;62136;-35.664;-63.766;2023-05-07T04:07:59;6.63;;;4.43;;
59974;SDS011;62136;-35.664;-63.766;2023-05-07T04:10:28;4.28;;;3.50;;
59974;SDS011;62136;-35.664;-63.766;2023-05-07T04:12:56;6.70;;;4.20;;
59974;SDS011;62136;-35.664;-63.766;2023-05-07T04:15:23;4.88;;;3.78;;
59974;SDS011;62136;-35.664;-63.766;2023-05-07T04:17:50;4.90;;;3.95;;
59974;SDS011;62136;-35.664;-63.766;2023-05-07T04:20:17;6.18;;;4.50;;
59974;SDS011;62136;-35.664;-63.766;2023-05-07T04:22:44;6.53;;;4.13;;
59974;SDS011;62136;-35.664;-63.766;2023-05-07T04:25:11;6.63;;;4.53;;
59974;SDS011;62136;-35.664;-63.766;2023-05-07T04:27:38;5.30;;;4.22;;
59974;SDS011;62136;-35.664;-63.766;2023-05-07T04:30:05;5.32;;;3.92;;
59974;SDS011;62136;-35.664;-63.766;2023-05-07T04:32:33;5.18;;;4.03;;
59974;SDS011;62136;-35.664;-63.766;2023-05-07T04:35:01;6.00;;;4.25;;
59974;SDS011;62136;-35.664;-63.766;2023-05-07T04:37:32;5.15;;;4.05;;
59974;SDS011;62136;-35.664;-63.766;2023-05-07T04:40:00;5.60;;;4.00;;
59974;SDS011;62136;-35.664;-63.766;2023-05-07T04:42:28;6.05;;;4.03;;
59974;SDS011;62136;-35.664;-63.766;2023-05-07T04:44:55;5.80;;;4.50;;
59974;SDS011;62136;-35.664;-63.766;2023-05-07T04:47:22;6.68;;;4.25;;
59974;SDS011;62136;-35.664;-63.766;2023-05-07T04:49:49;5.07;;;3.70;;
59974;SDS011;62136;-35.664;-63.766;2023-05-07T04:52:16;4.80;;;3.78;;
59974;SDS011;62136;-35.664;-63.766;2023-05-07T04:54:43;5.28;;;3.83;;
59974;SDS011;62136;-35.664;-63.766;2023-05-07T04:57:10;5.78;;;4.20;;
59974;SDS011;62136;-35.664;-63.766;2023-05-07T04:59:37;3.95;;;3.55;;
59974;SDS011;62136;-35.664;-63.766;2023-05-07T05:02:04;4.68;;;3.97;;
59974;SDS011;62136;-35.664;-63.766;2023-05-07T05:04:31;5.25;;;4.18;;
59974;SDS011;62136;-35.664;-63.766;2023-05-07T05:06:59;4.75;;;3.95;;
59974;SDS011;62136;-35.664;-63.766;2023-05-07T05:09:26;5.15;;;3.60;;
59974;SDS011;62136;-35.664;-63.766;2023-05-07T05:11:53;4.85;;;4.03;;
59974;SDS011;62136;-35.664;-63.766;2023-05-07T05:14:20;4.90;;;3.55;;
59974;SDS011;62136;-35.664;-63.766;2023-05-07T05:16:47;5.28;;;3.63;;
59974;SDS011;62136;-35.664;-63.766;2023-05-07T05:19:14;5.07;;;3.75;;
59974;SDS011;62136;-35.664;-63.766;2023-05-07T05:21:41;4.60;;;3.65;;
59974;SDS011;62136;-35.664;-63.766;2023-05-07T05:24:08;5.03;;;4.05;;
59974;SDS011;62136;-35.664;-63.766;2023-05-07T05:26:35;4.75;;;3.47;;
59974;SDS011;62136;-35.664;-63.766;2023-05-07T05:29:02;4.18;;;3.58;;
59974;SDS011;62136;-35.664;-63.766;2023-05-07T05:31:29;4.18;;;3.58;;
59974;SDS011;62136;-35.664;-63.766;2023-05-07T05:33:56;4.70;;;3.45;;
59974;SDS011;62136;-35.664;-63.766;2023-05-07T05:36:23;5.75;;;3.60;;
59974;SDS011;62136;-35.664;-63.766;2023-05-07T05:38:51;5.55;;;3.58;;
59974;SDS011;62136;-35.664;-63.766;2023-05-07T05:41:18;4.38;;;3.75;;
59974;SDS011;62136;-35.664;-63.766;2023-05-07T05:43:45;4.15;;;3.58;;
59974;SDS011;62136;-35.664;-63.766;2023-05-07T05:46:13;5.93;;;3.85;;
59974;SDS011;62136;-35.664;-63.766;2023-05-07T05:48:40;3.80;;;3.28;;
59974;SDS011;62136;-35.664;-63.766;2023-05-07T05:51:07;4.40;;;3.13;;
59974;SDS011;62136;-35.664;-63.766;2023-05-07T05:53:34;4.05;;;3.53;;
59974;SDS011;62136;-35.664;-63.766;2023-05-07T05:56:02;3.97;;;3.20;;
59974;SDS011;62136;-35.664;-63.766;2023-05-07T05:58:30;4.70;;;3.30;;
59974;SDS011;62136;-35.664;-63.766;2023-05-07T06:00:57;5.55;;;4.03;;
59974;SDS011;62136;-35.664;-63.766;2023-05-07T06:03:27;5.47;;;3.85;;
59974;SDS011;62136;-35.664;-63.766;2023-05-07T06:05:57;3.90;;;3.50;;
59974;SDS011;62136;-35.664;-63.766;2023-05-07T06:08:29;4.53;;;3.35;;
59974;SDS011;62136;-35.664;-63.766;2023-05-07T06:10:56;3.30;;;3.00;;
59974;SDS011;62136;-35.664;-63.766;2023-05-07T06:13:25;3.97;;;3.58;;
59974;SDS011;62136;-35.664;-63.766;2023-05-07T06:15:52;3.80;;;3.10;;
59974;SDS011;62136;-35.664;-63.766;2023-05-07T06:18:19;4.43;;;3.30;;
59974;SDS011;62136;-35.664;-63.766;2023-05-07T06:20:46;4.25;;;3.38;;
59974;SDS011;62136;-35.664;-63.766;2023-05-07T06:23:13;4.53;;;3.55;;
59974;SDS011;62136;-35.664;-63.766;2023-05-07T06:25:40;4.05;;;3.50;;
59974;SDS011;62136;-35.664;-63.766;2023-05-07T06:28:07;5.55;;;3.47;;
59974;SDS011;62136;-35.664;-63.766;2023-05-07T06:30:36;3.88;;;3.17;;
59974;SDS011;62136;-35.664;-63.766;2023-05-07T06:33:03;3.58;;;3.10;;
59974;SDS011;62136;-35.664;-63.766;2023-05-07T06:35:30;3.75;;;3.22;;
59974;SDS011;62136;-35.664;-63.766;2023-05-07T06:37:57;4.72;;;3.53;;
59974;SDS011;62136;-35.664;-63.766;2023-05-07T06:40:25;3.72;;;3.33;;
59974;SDS011;62136;-35.664;-63.766;2023-05-07T06:42:52;3.97;;;3.00;;
59974;SDS011;62136;-35.664;-63.766;2023-05-07T06:45:20;4.45;;;3.03;;
59974;SDS011;62136;-35.664;-63.766;2023-05-07T06:47:47;4.50;;;3.25;;
59974;SDS011;62136;-35.664;-63.766;2023-05-07T06:50:14;3.78;;;3.00;;
59974;SDS011;62136;-35.664;-63.766;2023-05-07T06:52:42;5.38;;;3.58;;
59974;SDS011;62136;-35.664;-63.766;2023-05-07T06:55:09;4.35;;;3.05;;
59974;SDS011;62136;-35.664;-63.766;2023-05-07T06:57:37;4.18;;;2.63;;
59974;SDS011;62136;-35.664;-63.766;2023-05-07T07:00:05;3.25;;;2.85;;
59974;SDS011;62136;-35.664;-63.766;2023-05-07T07:02:34;4.97;;;3.58;;
59974;SDS011;62136;-35.664;-63.766;2023-05-07T07:05:02;4.38;;;3.50;;
59974;SDS011;62136;-35.664;-63.766;2023-05-07T07:07:29;3.90;;;3.40;;
59974;SDS011;62136;-35.664;-63.766;2023-05-07T07:09:56;4.10;;;3.25;;
59974;SDS011;62136;-35.664;-63.766;2023-05-07T07:12:23;3.08;;;2.63;;
59974;SDS011;62136;-35.664;-63.766;2023-05-07T07:14:54;2.63;;;2.42;;
59974;SDS011;62136;-35.664;-63.766;2023-05-07T07:17:21;3.22;;;2.90;;
59974;SDS011;62136;-35.664;-63.766;2023-05-07T07:19:48;3.22;;;2.92;;
59974;SDS011;62136;-35.664;-63.766;2023-05-07T07:22:15;5.05;;;3.08;;
59974;SDS011;62136;-35.664;-63.766;2023-05-07T07:24:42;3.85;;;2.95;;
59974;SDS011;62136;-35.664;-63.766;2023-05-07T07:27:15;3.65;;;2.65;;
59974;SDS011;62136;-35.664;-63.766;2023-05-07T07:29:42;3.13;;;2.83;;
59974;SDS011;62136;-35.664;-63.766;2023-05-07T07:32:09;3.03;;;2.50;;
59974;SDS011;62136;-35.664;-63.766;2023-05-07T07:34:36;5.05;;;2.90;;
59974;SDS011;62136;-35.664;-63.766;2023-05-07T07:37:03;4.05;;;3.03;;
59974;SDS011;62136;-35.664;-63.766;2023-05-07T07:39:32;3.63;;;2.70;;
59974;SDS011;62136;-35.664;-63.766;2023-05-07T07:41:59;4.03;;;2.60;;
59974;SDS011;62136;-35.664;-63.766;2023-05-07T07:44:27;3.15;;;2.85;;
59974;SDS011;62136;-35.664;-63.766;2023-05-07T07:46:54;4.22;;;2.80;;
59974;SDS011;62136;-35.664;-63.766;2023-05-07T07:49:21;3.03;;;2.72;;
59974;SDS011;62136;-35.664;-63.766;2023-05-07T07:51:51;4.18;;;2.80;;
59974;SDS011;62136;-35.664;-63.766;2023-05-07T07:54:18;3.55;;;2.30;;
59974;SDS011;62136;-35.664;-63.766;2023-05-07T07:56:45;4.22;;;2.90;;
59974;SDS011;62136;-35.664;-63.766;2023-05-07T07:59:12;3.83;;;2.67;;
59974;SDS011;62136;-35.664;-63.766;2023-05-07T08:01:43;2.83;;;2.58;;
59974;SDS011;62136;-35.664;-63.766;2023-05-07T08:04:13;3.25;;;2.80;;
59974;SDS011;62136;-35.664;-63.766;2023-05-07T08:06:40;3.72;;;2.75;;
59974;SDS011;62136;-35.664;-63.766;2023-05-07T08:09:07;3.55;;;2.70;;
59974;SDS011;62136;-35.664;-63.766;2023-05-07T08:11:35;3.58;;;2.55;;
59974;SDS011;62136;-35.664;-63.766;2023-05-07T08:14:03;4.10;;;2.40;;
59974;SDS011;62136;-35.664;-63.766;2023-05-07T08:16:30;3.05;;;2.75;;
59974;SDS011;62136;-35.664;-63.766;2023-05-07T08:18:57;2.80;;;2.50;;
59974;SDS011;62136;-35.664;-63.766;2023-05-07T08:21:24;2.78;;;2.40;;
59974;SDS011;62136;-35.664;-63.766;2023-05-07T08:23:51;2.90;;;2.45;;
59974;SDS011;62136;-35.664;-63.766;2023-05-07T08:26:18;3.22;;;2.80;;
59974;SDS011;62136;-35.664;-63.766;2023-05-07T08:28:45;3.22;;;2.47;;
59974;SDS011;62136;-35.664;-63.766;2023-05-07T08:31:12;2.70;;;2.47;;
59974;SDS011;62136;-35.664;-63.766;2023-05-07T08:33:40;3.97;;;2.40;;
59974;SDS011;62136;-35.664;-63.766;2023-05-07T08:36:07;3.60;;;2.38;;
59974;SDS011;62136;-35.664;-63.766;2023-05-07T08:38:34;2.58;;;2.28;;
59974;SDS011;62136;-35.664;-63.766;2023-05-07T08:41:01;2.78;;;2.50;;
59974;SDS011;62136;-35.664;-63.766;2023-05-07T08:43:28;3.53;;;2.40;;
59974;SDS011;62136;-35.664;-63.766;2023-05-07T08:45:57;2.92;;;2.40;;
59974;SDS011;62136;-35.664;-63.766;2023-05-07T08:48:28;2.75;;;2.40;;
59974;SDS011;62136;-35.664;-63.766;2023-05-07T08:50:57;3.00;;;2.50;;
59974;SDS011;62136;-35.664;-63.766;2023-05-07T08:53:25;2.78;;;2.47;;
59974;SDS011;62136;-35.664;-63.766;2023-05-07T08:55:52;2.58;;;2.30;;
59974;SDS011;62136;-35.664;-63.766;2023-05-07T08:58:20;3.08;;;2.78;;
59974;SDS011;62136;-35.664;-63.766;2023-05-07T09:00:47;3.38;;;2.20;;
59974;SDS011;62136;-35.664;-63.766;2023-05-07T09:03:14;2.35;;;2.13;;
59974;SDS011;62136;-35.664;-63.766;2023-05-07T09:05:41;3.15;;;2.30;;
59974;SDS011;62136;-35.664;-63.766;2023-05-07T09:08:09;4.10;;;2.28;;
59974;SDS011;62136;-35.664;-63.766;2023-05-07T09:10:40;3.47;;;2.13;;
59974;SDS011;62136;-35.664;-63.766;2023-05-07T09:13:07;3.47;;;2.17;;
59974;SDS011;62136;-35.664;-63.766;2023-05-07T09:15:36;2.95;;;2.10;;
59974;SDS011;62136;-35.664;-63.766;2023-05-07T09:18:03;2.42;;;2.03;;
59974;SDS011;62136;-35.664;-63.766;2023-05-07T09:20:30;2.15;;;1.95;;
59974;SDS011;62136;-35.664;-63.766;2023-05-07T09:22:57;2.30;;;2.10;;
59974;SDS011;62136;-35.664;-63.766;2023-05-07T09:25:28;2.40;;;2.20;;
59974;SDS011;62136;-35.664;-63.766;2023-05-07T09:27:56;3.28;;;2.35;;
59974;SDS011;62136;-35.664;-63.766;2023-05-07T09:30:29;2.45;;;2.00;;
59974;SDS011;62136;-35.664;-63.766;2023-05-07T09:33:01;2.72;;;2.05;;
59974;SDS011;62136;-35.664;-63.766;2023-05-07T09:35:29;2.65;;;2.03;;
59974;SDS011;62136;-35.664;-63.766;2023-05-07T09:38:06;2.53;;;1.75;;
59974;SDS011;62136;-35.664;-63.766;2023-05-07T09:40:37;2.33;;;2.13;;
59974;SDS011;62136;-35.664;-63.766;2023-05-07T09:43:11;2.58;;;2.22;;
59974;SDS011;62136;-35.664;-63.766;2023-05-07T09:45:39;2.63;;;2.25;;
59974;SDS011;62136;-35.664;-63.766;2023-05-07T09:48:07;3.35;;;2.10;;
59974;SDS011;62136;-35.664;-63.766;2023-05-07T09:50:36;2.38;;;2.17;;
59974;SDS011;62136;-35.664;-63.766;2023-05-07T09:53:14;2.58;;;1.80;;
59974;SDS011;62136;-35.664;-63.766;2023-05-07T09:55:42;2.92;;;2.20;;
59974;SDS011;62136;-35.664;-63.766;2023-05-07T09:58:11;2.30;;;1.98;;
59974;SDS011;62136;-35.664;-63.766;2023-05-07T10:00:41;2.80;;;2.15;;
59974;SDS011;62136;-35.664;-63.766;2023-05-07T10:03:09;2.30;;;2.10;;
59974;SDS011;62136;-35.664;-63.766;2023-05-07T10:05:38;2.30;;;1.83;;
59974;SDS011;62136;-35.664;-63.766;2023-05-07T10:08:06;2.22;;;1.85;;
59974;SDS011;62136;-35.664;-63.766;2023-05-07T10:10:34;3.42;;;2.17;;
59974;SDS011;62136;-35.664;-63.766;2023-05-07T10:13:01;3.95;;;2.20;;
59974;SDS011;62136;-35.664;-63.766;2023-05-07T10:15:31;2.45;;;2.22;;
59974;SDS011;62136;-35.664;-63.766;2023-05-07T10:17:58;2.83;;;1.83;;
59974;SDS011;62136;-35.664;-63.766;2023-05-07T10:20:25;2.33;;;1.80;;
59974;SDS011;62136;-35.664;-63.766;2023-05-07T10:22:53;2.00;;;1.80;;
59974;SDS011;62136;-35.664;-63.766;2023-05-07T10:25:24;2.50;;;1.92;;
59974;SDS011;62136;-35.664;-63.766;2023-05-07T10:27:55;2.22;;;1.80;;
59974;SDS011;62136;-35.664;-63.766;2023-05-07T10:33:23;2.47;;;1.70;;
59974;SDS011;62136;-35.664;-63.766;2023-05-07T10:35:55;2.20;;;1.95;;
59974;SDS011;62136;-35.664;-63.766;2023-05-07T10:38:26;2.25;;;1.88;;
59974;SDS011;62136;-35.664;-63.766;2023-05-07T10:40:54;2.00;;;1.80;;
59974;SDS011;62136;-35.664;-63.766;2023-05-07T10:43:21;2.10;;;1.90;;
59974;SDS011;62136;-35.664;-63.766;2023-05-07T10:51:25;1.80;;;1.70;;
59974;SDS011;62136;-35.664;-63.766;2023-05-07T11:01:53;3.15;;;1.90;;
59974;SDS011;62136;-35.664;-63.766;2023-05-07T11:04:24;1.70;;;1.60;;
59974;SDS011;62136;-35.664;-63.766;2023-05-07T11:15:04;2.30;;;1.80;;
59974;SDS011;62136;-35.664;-63.766;2023-05-07T11:17:32;2.00;;;1.80;;
59974;SDS011;62136;-35.664;-63.766;2023-05-07T11:20:03;2.13;;;1.67;;
59974;SDS011;62136;-35.664;-63.766;2023-05-07T11:25:01;1.73;;;1.60;;
59974;SDS011;62136;-35.664;-63.766;2023-05-07T11:27:30;2.50;;;1.70;;
59974;SDS011;62136;-35.664;-63.766;2023-05-07T11:29:57;2.17;;;1.70;;
59974;SDS011;62136;-35.664;-63.766;2023-05-07T11:32:30;1.65;;;1.55;;
59974;SDS011;62136;-35.664;-63.766;2023-05-07T11:34:58;2.88;;;1.55;;
59974;SDS011;62136;-35.664;-63.766;2023-05-07T11:37:27;2.75;;;1.70;;
59974;SDS011;62136;-35.664;-63.766;2023-05-07T11:40:05;2.60;;;1.63;;
59974;SDS011;62136;-35.664;-63.766;2023-05-07T11:42:34;2.00;;;1.73;;
59974;SDS011;62136;-35.664;-63.766;2023-05-07T11:45:05;2.92;;;1.73;;
59974;SDS011;62136;-35.664;-63.766;2023-05-07T11:47:33;1.95;;;1.75;;
59974;SDS011;62136;-35.664;-63.766;2023-05-07T11:50:07;1.58;;;1.40;;
59974;SDS011;62136;-35.664;-63.766;2023-05-07T11:52:35;2.22;;;1.42;;
59974;SDS011;62136;-35.664;-63.766;2023-05-07T11:55:04;1.50;;;1.40;;
59974;SDS011;62136;-35.664;-63.766;2023-05-07T11:57:32;2.08;;;1.60;;
59974;SDS011;62136;-35.664;-63.766;2023-05-07T12:00:00;1.60;;;1.50;;
59974;SDS011;62136;-35.664;-63.766;2023-05-07T12:02:29;1.95;;;1.60;;
59974;SDS011;62136;-35.664;-63.766;2023-05-07T12:04:56;1.92;;;1.40;;
59974;SDS011;62136;-35.664;-63.766;2023-05-07T12:07:26;2.05;;;1.73;;
59974;SDS011;62136;-35.664;-63.766;2023-05-07T12:09:53;1.63;;;1.50;;
59974;SDS011;62136;-35.664;-63.766;2023-05-07T12:12:20;2.42;;;1.63;;
59974;SDS011;62136;-35.664;-63.766;2023-05-07T12:14:47;2.60;;;1.70;;
59974;SDS011;62136;-35.664;-63.766;2023-05-07T12:17:15;1.58;;;1.30;;
59974;SDS011;62136;-35.664;-63.766;2023-05-07T12:19:43;1.90;;;1.60;;
59974;SDS011;62136;-35.664;-63.766;2023-05-07T12:22:11;1.63;;;1.50;;
59974;SDS011;62136;-35.664;-63.766;2023-05-07T12:24:45;1.95;;;1.60;;
59974;SDS011;62136;-35.664;-63.766;2023-05-07T12:27:14;2.03;;;1.48;;
59974;SDS011;62136;-35.664;-63.766;2023-05-07T12:29:46;1.58;;;1.33;;
59974;SDS011;62136;-35.664;-63.766;2023-05-07T12:32:14;1.73;;;1.50;;
59974;SDS011;62136;-35.664;-63.766;2023-05-07T12:34:46;3.22;;;1.55;;
59974;SDS011;62136;-35.664;-63.766;2023-05-07T12:37:16;3.50;;;1.80;;
59974;SDS011;62136;-35.664;-63.766;2023-05-07T12:39:48;1.73;;;1.50;;
59974;SDS011;62136;-35.664;-63.766;2023-05-07T12:42:32;1.60;;;1.50;;
59974;SDS011;62136;-35.664;-63.766;2023-05-07T12:45:11;3.50;;;1.80;;
59974;SDS011;62136;-35.664;-63.766;2023-05-07T12:47:39;1.38;;;1.23;;
59974;SDS011;62136;-35.664;-63.766;2023-05-07T12:50:10;1.70;;;1.60;;
59974;SDS011;62136;-35.664;-63.766;2023-05-07T12:52:38;2.30;;;1.60;;
59974;SDS011;62136;-35.664;-63.766;2023-05-07T12:55:06;1.98;;;1.50;;
59974;SDS011;62136;-35.664;-63.766;2023-05-07T12:57:40;2.00;;;1.70;;
59974;SDS011;62136;-35.664;-63.766;2023-05-07T13:00:17;2.10;;;1.80;;
59974;SDS011;62136;-35.664;-63.766;2023-05-07T13:02:57;1.35;;;1.23;;
59974;SDS011;62136;-35.664;-63.766;2023-05-07T13:05:25;1.98;;;1.40;;
59974;SDS011;62136;-35.664;-63.766;2023-05-07T13:07:55;2.75;;;1.77;;
59974;SDS011;62136;-35.664;-63.766;2023-05-07T13:10:23;1.50;;;1.40;;
59974;SDS011;62136;-35.664;-63.766;2023-05-07T13:12:51;1.90;;;1.63;;
59974;SDS011;62136;-35.664;-63.766;2023-05-07T13:15:18;2.42;;;1.95;;
59974;SDS011;62136;-35.664;-63.766;2023-05-07T13:17:46;1.90;;;1.50;;
59974;SDS011;62136;-35.664;-63.766;2023-05-07T13:20:13;2.10;;;1.55;;
59974;SDS011;62136;-35.664;-63.766;2023-05-07T13:22:40;2.10;;;1.50;;
59974;SDS011;62136;-35.664;-63.766;2023-05-07T13:25:08;2.28;;;1.40;;
59974;SDS011;62136;-35.664;-63.766;2023-05-07T13:27:35;3.00;;;1.70;;
59974;SDS011;62136;-35.664;-63.766;2023-05-07T13:30:05;4.35;;;1.50;;
59974;SDS011;62136;-35.664;-63.766;2023-05-07T13:32:32;1.52;;;1.42;;
59974;SDS011;62136;-35.664;-63.766;2023-05-07T13:35:00;3.67;;;1.75;;
59974;SDS011;62136;-35.664;-63.766;2023-05-07T13:37:27;2.30;;;1.45;;
59974;SDS011;62136;-35.664;-63.766;2023-05-07T13:39:54;1.77;;;1.50;;
59974;SDS011;62136;-35.664;-63.766;2023-05-07T13:42:21;2.83;;;1.48;;
59974;SDS011;62136;-35.664;-63.766;2023-05-07T13:44:48;3.95;;;1.60;;
59974;SDS011;62136;-35.664;-63.766;2023-05-07T13:47:16;2.80;;;1.30;;
59974;SDS011;62136;-35.664;-63.766;2023-05-07T13:49:43;2.22;;;1.60;;
59974;SDS011;62136;-35.664;-63.766;2023-05-07T13:52:10;1.55;;;1.40;;
59974;SDS011;62136;-35.664;-63.766;2023-05-07T13:54:37;2.08;;;1.20;;
59974;SDS011;62136;-35.664;-63.766;2023-05-07T13:57:04;1.63;;;1.30;;
59974;SDS011;62136;-35.664;-63.766;2023-05-07T13:59:31;1.92;;;1.48;;
59974;SDS011;62136;-35.664;-63.766;2023-05-07T14:01:58;2.03;;;1.52;;
59974;SDS011;62136;-35.664;-63.766;2023-05-07T14:04:25;2.88;;;1.30;;
59974;SDS011;62136;-35.664;-63.766;2023-05-07T14:06:52;2.00;;;1.20;;
59974;SDS011;62136;-35.664;-63.766;2023-05-07T14:09:19;1.73;;;1.25;;
59974;SDS011;62136;-35.664;-63.766;2023-05-07T14:11:47;2.50;;;1.52;;
59974;SDS011;62136;-35.664;-63.766;2023-05-07T14:14:17;2.35;;;1.50;;
59974;SDS011;62136;-35.664;-63.766;2023-05-07T14:16:44;3.78;;;1.35;;
59974;SDS011;62136;-35.664;-63.766;2023-05-07T14:19:12;1.77;;;1.30;;
59974;SDS011;62136;-35.664;-63.766;2023-05-07T14:21:39;2.55;;;1.35;;
59974;SDS011;62136;-35.664;-63.766;2023-05-07T14:24:06;1.75;;;1.20;;
59974;SDS011;62136;-35.664;-63.766;2023-05-07T14:26:34;1.65;;;1.40;;
59974;SDS011;62136;-35.664;-63.766;2023-05-07T14:29:01;5.43;;;1.55;;
59974;SDS011;62136;-35.664;-63.766;2023-05-07T14:31:28;3.13;;;1.55;;
59974;SDS011;62136;-35.664;-63.766;2023-05-07T14:33:56;2.88;;;1.27;;
59974;SDS011;62136;-35.664;-63.766;2023-05-07T14:36:23;2.97;;;1.33;;
59974;SDS011;62136;-35.664;-63.766;2023-05-07T14:38:55;1.67;;;1.40;;
59974;SDS011;62136;-35.664;-63.766;2023-05-07T14:41:24;3.28;;;1.30;;
59974;SDS011;62136;-35.664;-63.766;2023-05-07T14:43:51;2.33;;;1.40;;